Buckland, AK

6:19 AM AKST on March 04, 2015 (GMT -0900)
Buckland | Change Station
CLOSE
Current Station
Airport
Location: Buckland,
Elevation: 30 ft
Nearby Weather Stations

Elev 30 ft 65.98 °N, 161.15 °W | Updated 3 minutes ago

Overcast
Overcast
0 °F
Feels Like -16 °F
N
9
Wind Variable Wind from WNW

Today
High -- | Low -- °F
--% Chance of Precip.
Yesterday
High -- | Low -- °F
Precip. -- in
8:45 AM 7:08 PM
Waxing Gibbous, 99% visible
Pressure 29.98 in
Visibility 10.0 miles
Clouds Overcast 1500 ft
Windchill -16 °F
Dew Point -4 °F
Humidity 85%
Rainfall 0.00 in
Snow Depth Not available.
UV 0 out of 12
Pollen Not available.
Air Quality Not available.
Flu Activity Not available.
METAR PABL 041516Z AUTO 30008KT 10SM OVC015 M18/M20 A2998 RMK AO1

More Conditions Fewer Conditions

Pressure 29.98 in
Visibility 10.0 miles
Clouds Overcast 1500 ft
Windchill -16 °F
Dew Point -4 °F
Humidity 85%
Rainfall 0.00 in
Snow Depth Not available.
UV 0 out of 12
Pollen Not available.
Air Quality Not available.
Flu Activity Not available.
METAR PABL 041516Z AUTO 30008KT 10SM OVC015 M18/M20 A2998 RMK AO1

More Conditions Fewer Conditions

10-Day Weather Forecast

Almanac

Astronomy

Mar. 04, 2015 Rise Set
Actual Time
Civil Twilight
Nautical Twilight
Astronomical Twilight
Moon
Length of Visible Light
Length of Day
Tomorrow will be .
, % of the Moon is Illuminated

Today's Extremes

State Highs State Lows

Community

WunderPhotos

Upload Photos

1,802,487 photos uploaded!

WunderBlogs® & News

Nearby

Air Quality

  Air Quality AQ Index Pollutant
Not available.

Snow Depth

Station Depth Elevation

Earthquake Activity

City Distance Mag. Time & Date
Minimum magnitude displayed is 2.5.

Coastal Water Temperatures

Place Temperature

Nearby Weather Stations